Startpagina
METAR-TAF:

METAR-TAF

Vliegvelden :

Pohnpei, Micronesië

breedte: 06-59N, lengte: 158-12E, hoogte: 2 m

Actueel weer

Dit bericht is 57 minuten geleden gemaakt, om 01:50 UTC
Wind 5 kt uit het zuidoosten
Temperatuur 29°C
Vochtigheid 79%
Druk 1008 hPa
Gebroken wolken op 1700 ft, Stapelwolken.
Gebroken wolken op 13000 ft
Geheel bewolkt op 30000 ft
lichte regen

METAR: PTPN 250150Z 13005KT 10M -RA BKN017TCU BKN130 OVC300 29/25 A2978

Tijdstip: 13:47 (02:47 UTC)

Verwachting

Dit bericht is 3 uur en het 4 minuten geleden gemaakt, om 23:43 UTC
Verwachting geldig van 25 om 00 UTC tot 25 om 24 UTC
Wind 8 kt uit het noordnoordoosten
Zicht: 10 km
Verspreide wolken op 1600 ft
Gebroken wolken op 12000 ft
buien in de omgeving
Tijdelijke
van 25 om 00 UTC tot 25 om 04 UTC
Gebroken wolken op 1600 ft
Geheel bewolkt op 8000 ft
lichte regenbuien

TAF: PTPN 242343Z 2500/2524 03008KT P6SM VCSH SCT016 BKN120 TEMPO 2500/2504 -SHRA BKN016 OVC080

Waarnemingen en weersverwachtingen van meer dan 4000 vliegvelden (METAR en TAF).

De beschikbare stations zijn de gele en rode punten op de kaart.

Ga met uw muis naar het station om de naam te zien.

Klik dan om waarnemingen en weersverwachtingen te zien.

kaart wijzigen: klik op de groene knoppen met een zwart kruis om in te zoomen, op de groene knop met een streepje om uit te zoomen of op de groene pijlen voor aangrenzende kaarten.


METAR-TAF: